Station: Gerangamete (Cfa)  

  Atmospheric Gas Attenuation - ITU Rec 676-11   ----------------- dB/100km -----------------
Date Time Temp RH % AH g/m3 Dew Point Wind Direction Speed kph Gust kph Barometer mB Rainfall Since 9am 24GHz 47GHz 76GHz 122GHz 134GHz 241GHz
08/05 11:20 13.7 81 9.59 10.5 26 30 1013.1 0 21.7 27.6 43.9 115.4 111.8 385.5
08/05 11:10 13.9 81 9.71 10.7 28 32 1013.1 0 22.0 27.7 44.3 116.4 113.2 390.3
08/05 11:00 13.8 82 9.77 10.8 22 26 1013.1 0 22.1 27.8 44.6 117.2 114.2 393.7
08/05 10:50 13.4 85 9.88 10.9 24 26 1013.1 0 22.4 28.1 45.3 119.1 116.3 401.0
08/05 10:40 13 89 10.09 11.2 26 35 1013.1 0 22.8 28.6 46.4 122.1 119.9 413.4
08/05 10:30 13.8 85 10.13 11.3 22 28 1013.1 0 22.9 28.4 46.1 121.3 119.2 411.1
08/05 10:20 13.2 89 10.22 11.4 20 26 1013.1 0 23.1 28.8 46.9 123.3 121.4 418.7
08/05 10:10 13.2 87 9.99 11.1 24 28 1013.1 0 22.6 28.4 45.9 120.6 118.1 407.5
08/05 10:00 12.6 90 9.96 11 24 30 1013.1 0 22.6 28.5 46.1 121.2 118.6 409.1
08/05 09:50 13.4 87 10.11 11.3 24 28 1013.1 0 22.8 28.5 46.3 121.7 119.5 412.3
08/05 09:40 13.2 86 9.88 10.9 24 28 1013.1 0 22.4 28.2 45.4 119.4 116.6 402.1
08/05 09:30 13.4 87 10.11 11.3 22 26 1013.1 0 22.8 28.5 46.3 121.7 119.5 412.3
08/05 09:20 13 87 9.87 10.9 26 28 1013.1 0 22.4 28.2 45.5 119.6 116.8 402.6
08/05 09:10 12.7 88 9.8 10.8 24 28 1013.1 0 22.2 28.2 45.4 119.3 116.2 400.8
08/05 09:00 12.7 88 9.8 10.8 22 26 1013.1 5.6 22.2 28.2 45.4 119.3 116.2 400.8
08/05 08:50 12.5 89 9.79 10.8 19 22 1013.1 5.6 22.2 28.3 45.4 119.5 116.4 401.3
08/05 08:40 12.4 91 9.94 11 17 24 1013.1 5.6 22.5 28.6 46.1 121.3 118.7 409.2
08/05 08:30 12.4 90 9.83 10.9 17 22 1013.1 5.6 22.3 28.4 45.7 120.1 117.1 403.8
08/05 08:20 12 92 9.81 10.8 17 19 1013.1 5.6 22.3 28.5 45.8 120.5 117.5 404.9
08/05 08:10 11.7 94 9.83 10.8 15 19 1013.1 5.6 22.3 28.6 46.1 121.2 118.2 407.5
08/05 08:00 11.7 95 9.94 10.9 15 20 1013.1 5.6 22.6 28.8 46.5 122.4 119.8 413.0
08/05 07:50 11.6 95 9.88 10.8 13 17 1013.1 5.6 22.5 28.7 46.3 121.9 119.1 410.5
08/05 07:40 11.4 95 9.75 10.7 15 17 1013.1 5.6 22.2 28.6 45.9 120.7 117.5 405.1
08/05 07:30 11.4 95 9.75 10.6 17 20 1013.1 5.6 22.2 28.6 45.9 120.7 117.5 405.1
08/05 07:20 11.4 94 9.65 10.5 19 22 1013.1 5.6 22.0 28.4 45.5 119.5 116.1 400.1
08/05 07:10 11.3 94 9.59 10.4 15 19 1013.1 5.6 21.8 28.3 45.3 119.0 115.4 397.7
08/05 07:00 11.4 94 9.65 10.4 13 17 1013.1 5.6 22.0 28.4 45.5 119.5 116.1 400.1
08/05 06:50 11.4 93 9.55 10.3 15 19 1013.1 5.6 21.8 28.2 45.0 118.4 114.7 395.2
08/05 06:40 11.5 94 9.71 10.5 20 26 1013.1 5.6 22.1 28.5 45.7 120.1 116.8 402.6
08/05 06:30 11.5 95 9.81 10.7 19 22 1013.1 5.6 22.3 28.6 46.1 121.2 118.2 407.5
08/05 06:20 11.5 94 9.71 10.6 17 22 1013.1 5.4 22.1 28.5 45.7 120.1 116.8 402.6
08/05 06:10 11.5 95 9.81 10.7 19 22 1013.1 5.4 22.3 28.6 46.1 121.2 118.2 407.5
08/05 06:00 11.5 95 9.81 10.8 20 28 1013.1 5.4 22.3 28.6 46.1 121.2 118.2 407.5
08/05 05:50 11.6 95 9.88 10.8 20 22 1013.1 5.4 22.5 28.7 46.3 121.9 119.1 410.5
08/05 05:40 11.6 94 9.77 10.6 22 26 1013.1 5.2 22.2 28.5 45.9 120.6 117.5 405.0
08/05 05:30 11.6 94 9.77 10.7 22 26 1013.1 5.2 22.2 28.5 45.9 120.6 117.5 405.0
08/05 05:20 11.6 94 9.77 10.7 26 30 1013.1 5.2 22.2 28.5 45.9 120.6 117.5 405.0
08/05 05:10 11.6 95 9.88 10.8 22 30 1013.1 5 22.5 28.7 46.3 121.9 119.1 410.5
08/05 05:00 11.7 93 9.73 10.6 26 32 1013.1 5 22.1 28.4 45.6 120.0 116.8 402.5
08/05 04:50 11.6 94 9.77 10.7 24 28 1013.1 5 22.2 28.5 45.9 120.6 117.5 405.0
08/05 04:40 11.6 94 9.77 10.7 22 26 1013.1 5 22.2 28.5 45.9 120.6 117.5 405.0
08/05 04:30 11.6 94 9.77 10.6 24 35 1013.1 5 22.2 28.5 45.9 120.6 117.5 405.0
08/05 04:20 11.6 94 9.77 10.7 24 32 1013.1 5 22.2 28.5 45.9 120.6 117.5 405.0
08/05 04:10 11.6 94 9.77 10.7 26 33 1013.1 4.8 22.2 28.5 45.9 120.6 117.5 405.0
08/05 04:00 11.6 95 9.88 10.8 24 30 1013.1 4.8 22.5 28.7 46.3 121.9 119.1 410.5
08/05 03:50 11.7 94 9.83 10.7 22 30 1013.1 4.6 22.3 28.6 46.1 121.2 118.2 407.5
08/05 03:40 11.7 94 9.83 10.7 26 32 1013.1 4.6 22.3 28.6 46.1 121.2 118.2 407.5
08/05 03:30 11.6 94 9.77 10.7 24 35 1013.1 4.6 22.2 28.5 45.9 120.6 117.5 405.0
08/05 03:20 11.7 94 9.83 10.7 22 28 1013.1 4.6 22.3 28.6 46.1 121.2 118.2 407.5
08/05 03:10 11.7 94 9.83 10.8 22 28 1013.1 4.6 22.3 28.6 46.1 121.2 118.2 407.5
08/05 03:00 11.7 94 9.83 10.8 20 26 1013.1 4.6 22.3 28.6 46.1 121.2 118.2 407.5
08/05 02:50 11.9 92 9.74 10.7 20 28 1013.1 4.4 22.1 28.4 45.6 119.8 116.6 402.0
08/05 02:40 11.9 93 9.85 10.8 28 35 1013.1 4.4 22.4 28.6 46.0 121.1 118.2 407.4
08/05 02:30 11.9 93 9.85 10.8 20 30 1013.1 4.4 22.4 28.6 46.0 121.1 118.2 407.4
08/05 02:10 12 93 9.91 10.9 22 26 1013.1 4.4 22.5 28.6 46.2 121.6 118.9 409.9
08/05 02:00 12 93 9.91 10.9 26 32 1013.1 4.2 22.5 28.6 46.2 121.6 118.9 409.9
08/05 01:50 11.9 94 9.96 11 22 26 1013.1 4.2 22.6 28.8 46.5 122.3 119.7 412.9
08/05 01:40 12 92 9.81 10.8 22 26 1013.1 4 22.3 28.5 45.8 120.5 117.5 404.9
08/05 01:30 11.9 94 9.96 10.9 20 24 1013.1 4 22.6 28.8 46.5 122.3 119.7 412.9
08/05 01:20 11.8 94 9.89 10.9 20 26 1013.1 4 22.5 28.7 46.3 121.7 118.9 409.9
08/05 01:10 11.8 94 9.89 10.9 20 22 1013.1 3.8 22.5 28.7 46.3 121.7 118.9 409.9
08/05 01:00 11.8 93 9.79 10.7 19 26 1013.1 3.6 22.2 28.5 45.8 120.5 117.5 405.0
08/05 00:50 11.8 92 9.68 10.6 20 28 1013.1 3.6 22.0 28.3 45.4 119.3 115.9 399.5
08/05 00:40 11.8 92 9.68 10.5 20 26 1013.1 3.6 22.0 28.3 45.4 119.3 115.9 399.5
08/05 00:30 11.7 92 9.62 10.5 19 26 1013.1 3.6 21.9 28.2 45.2 118.7 115.2 397.1
08/05 00:20 11.7 92 9.62 10.5 19 26 1013.1 3.6 21.9 28.2 45.2 118.7 115.2 397.1
08/05 00:10 11.6 92 9.56 10.4 24 26 1013.1 3.6 21.8 28.2 45.0 118.2 114.5 394.6
08/05 00:00 11.5 94 9.71 10.6 24 32 1013.1 3.6 22.1 28.5 45.7 120.1 116.8 402.6
07/05 23:50 11.5 94 9.71 10.6 20 26 1013.1 3.6 22.1 28.5 45.7 120.1 116.8 402.6
07/05 23:40 11.4 95 9.75 10.6 17 20 1013.1 3.6 22.2 28.6 45.9 120.7 117.5 405.1
07/05 23:30 11.6 93 9.67 10.5 19 20 1013.1 3.4 22.0 28.4 45.4 119.5 116.1 400.1
07/05 23:20 11.5 94 9.71 10.5 20 24 1013.1 3.4 22.1 28.5 45.7 120.1 116.8 402.6
07/05 23:10 11.4 95 9.75 10.7 20 22 1013.1 3.4 22.2 28.6 45.9 120.7 117.5 405.1
07/05 22:50 11.3 95 9.69 10.6 19 30 1013.1 3.2 22.1 28.5 45.7 120.2 116.8 402.6
07/05 22:40 11.3 95 9.69 10.5 19 22 1013.1 3.2 22.1 28.5 45.7 120.2 116.8 402.6
07/05 22:30 11.3 94 9.59 10.4 20 24 1013.1 3 21.8 28.3 45.3 119.0 115.4 397.7
07/05 22:20 11.2 95 9.63 10.4 20 28 1013.1 3 21.9 28.4 45.5 119.6 116.1 400.2
07/05 22:10 11.1 95 9.57 10.3 19 24 1013.1 3 21.8 28.3 45.3 119.1 115.4 397.7
07/05 22:00 11 95 9.51 10.3 17 24 1013.1 3 21.7 28.3 45.1 118.5 114.7 395.2
07/05 21:50 10.9 95 9.45 10.2 19 26 1013.1 2.8 21.6 28.2 44.9 118.0 114.0 392.8
07/05 21:40 10.8 95 9.39 10.1 19 22 1013.1 2.6 21.4 28.1 44.7 117.5 113.3 390.3
07/05 21:30 10.7 95 9.33 9.9 19 26 1013.1 2.6 21.3 28.1 44.5 116.9 112.6 387.8
07/05 21:20 10.5 95 9.22 9.8 17 20 1013.1 2.6 21.1 27.9 44.1 116.0 111.4 383.4
07/05 21:10 10.4 95 9.16 9.7 15 19 1013.1 2.6 21.0 27.9 43.9 115.4 110.7 380.9
07/05 21:00 10.3 95 9.1 9.6 17 20 1013.1 2.6 20.8 27.8 43.7 114.9 110.0 378.4
07/05 20:50 10.3 95 9.1 9.5 17 22 1013.1 2.4 20.8 27.8 43.7 114.9 110.0 378.4
07/05 20:40 10.2 95 9.04 9.4 19 19 1013.1 2.4 20.7 27.7 43.5 114.4 109.3 376.0
07/05 20:30 10.1 94 8.89 9.2 19 20 1013.1 2.4 20.4 27.5 42.9 112.8 107.3 369.1
07/05 20:20 10 95 8.93 9.2 17 20 1013.1 2.4 20.5 27.6 43.2 113.4 108.0 371.5
07/05 20:10 9.9 95 8.87 9.2 15 20 1013.1 2.4 20.4 27.5 43.0 112.8 107.3 369.0
07/05 20:00 10 94 8.83 9.1 20 24 1013.1 2.2 20.3 27.4 42.7 112.2 106.6 366.6
07/05 19:50 9.8 95 8.82 9 15 19 1013.1 2.2 20.3 27.5 42.8 112.4 106.7 367.0
07/05 19:40 9.8 95 8.82 9 15 20 1013.1 2.2 20.3 27.5 42.8 112.4 106.7 367.0
07/05 19:30 9.8 94 8.72 8.9 20 26 1013.1 2 20.0 27.3 42.4 111.3 105.3 362.1
07/05 19:10 9.5 95 8.65 8.7 17 20 1013.1 1.8 19.9 27.3 42.2 110.9 104.7 360.1
07/05 19:00 9.4 95 8.59 8.7 15 20 1013.1 1.8 19.8 27.2 42.0 110.4 104.0 357.6
07/05 18:50 9.3 95 8.54 8.6 17 19 1013.1 1.8 19.7 27.1 41.9 109.9 103.5 355.6
07/05 18:40 9.3 94 8.45 8.4 19 22 1013.1 1.8 19.5 27.0 41.5 108.9 102.2 351.2
07/05 18:30 9.2 94 8.4 8.3 17 20 1013.1 1.6 19.4 26.9 41.3 108.5 101.6 349.2
07/05 18:20 9 94 8.29 8.1 17 19 1013.1 1.6 19.2 26.8 41.0 107.5 100.4 344.7

Last Refresh: 08-May-2026 11:05:11

Bureau of Meteorology